Time;durP1;ratioP1;P1;durP2;ratioP2;P2;SDS_P1;SDS_P2;PMS_P1;PMS_P2;Temp;Humidity;BMP_temperature;BMP_pressure;BME280_temperature;BME280_humidity;BME280_pressure;Samples;Min_cycle;Max_cycle;Signal;HPM_P1;HPM_P2
2022/07/29 00:00:31;;;;;;;0.00;0.00;;;;;;;;;;6079999;23;20029;-41
2022/07/29 00:02:58;;;;;;;0.10;0.10;;;;;;;;;;6086002;23;20014;-40
2022/07/29 00:05:25;;;;;;;0.00;0.00;;;;;;;;;;6083602;23;20022;-41
2022/07/29 00:07:53;;;;;;;0.00;0.00;;;;;;;;;;6086095;23;20014;-40
2022/07/29 00:10:19;;;;;;;0.00;0.00;;;;;;;;;;6080625;23;20074;-41
2022/07/29 00:12:46;;;;;;;0.00;0.00;;;;;;;;;;6091332;23;20015;-40
2022/07/29 00:15:13;;;;;;;0.00;0.00;;;;;;;;;;6080594;23;20014;-41
2022/07/29 00:17:40;;;;;;;0.00;0.00;;;;;;;;;;6085079;23;20608;-40
2022/07/29 00:20:07;;;;;;;0.00;0.00;;;;;;;;;;6080416;23;20018;-41
2022/07/29 00:22:37;;;;;;;0.00;0.00;;;;;;;;;;6084160;23;20018;-42
2022/07/29 00:25:06;;;;;;;0.00;0.00;;;;;;;;;;6083189;23;20021;-40
2022/07/29 00:27:32;;;;;;;0.00;0.00;;;;;;;;;;6078561;23;20014;-40
2022/07/29 00:29:59;;;;;;;0.00;0.00;;;;;;;;;;6083986;23;20022;-41
2022/07/29 00:32:26;;;;;;;0.00;0.00;;;;;;;;;;6080407;23;20026;-41
2022/07/29 00:37:36;;;;;;;0.00;0.00;;;;;;;;;;6075848;23;20018;-42
2022/07/29 00:40:03;;;;;;;0.00;0.00;;;;;;;;;;6084125;23;20029;-41
2022/07/29 00:42:31;;;;;;;0.00;0.00;;;;;;;;;;6079047;23;20034;-43
2022/07/29 00:44:57;;;;;;;0.00;0.00;;;;;;;;;;6085304;23;20032;-41
2022/07/29 00:47:24;;;;;;;0.00;0.00;;;;;;;;;;6077455;23;20050;-40
2022/07/29 00:49:51;;;;;;;0.00;0.00;;;;;;;;;;6083952;23;20026;-41
2022/07/29 00:52:17;;;;;;;0.00;0.00;;;;;;;;;;6073246;23;20026;-40
2022/07/29 00:54:44;;;;;;;0.00;0.00;;;;;;;;;;6081195;23;20018;-40
2022/07/29 00:57:10;;;;;;;0.00;0.00;;;;;;;;;;6083662;23;20015;-42
2022/07/29 00:59:38;;;;;;;0.00;0.00;;;;;;;;;;6079220;23;20015;-40
2022/07/29 01:02:05;;;;;;;0.00;0.00;;;;;;;;;;6078502;23;20042;-44
2022/07/29 01:04:32;;;;;;;0.00;0.00;;;;;;;;;;6085950;23;20014;-41
2022/07/29 01:06:59;;;;;;;0.00;0.00;;;;;;;;;;6078164;23;20447;-40
2022/07/29 01:09:27;;;;;;;0.00;0.00;;;;;;;;;;6073023;23;20019;-41
2022/07/29 01:11:54;;;;;;;0.00;0.00;;;;;;;;;;6083228;23;20022;-41
2022/07/29 01:14:22;;;;;;;0.00;0.00;;;;;;;;;;6083707;23;20014;-41
2022/07/29 01:16:52;;;;;;;0.00;0.00;;;;;;;;;;6080126;23;20050;-42
2022/07/29 01:19:40;;;;;;;0.00;0.00;;;;;;;;;;6085507;23;20031;-40
2022/07/29 01:22:26;;;;;;;0.00;0.00;;;;;;;;;;6081323;23;20034;-40
2022/07/29 01:25:03;;;;;;;0.00;0.00;;;;;;;;;;6082813;23;20018;-40
2022/07/29 01:27:36;;;;;;;0.00;0.00;;;;;;;;;;6082687;23;20029;-39
2022/07/29 01:30:04;;;;;;;0.00;0.00;;;;;;;;;;6082759;23;20019;-41
2022/07/29 01:32:33;;;;;;;0.00;0.00;;;;;;;;;;6081685;23;20457;-42
2022/07/29 01:35:03;;;;;;;0.00;0.00;;;;;;;;;;6063079;23;20436;-41
2022/07/29 01:37:33;;;;;;;0.00;0.00;;;;;;;;;;6084916;23;20045;-40
2022/07/29 01:40:00;;;;;;;0.00;0.00;;;;;;;;;;6083752;23;20018;-39
2022/07/29 01:42:30;;;;;;;0.00;0.00;;;;;;;;;;6086644;23;20042;-40
2022/07/29 01:44:58;;;;;;;0.00;0.00;;;;;;;;;;6077780;23;20018;-39
2022/07/29 01:47:27;;;;;;;0.00;0.00;;;;;;;;;;6078235;23;20018;-39
2022/07/29 01:49:55;;;;;;;0.00;0.00;;;;;;;;;;6079950;23;20029;-41
2022/07/29 01:52:24;;;;;;;0.00;0.00;;;;;;;;;;6083380;23;20026;-40
2022/07/29 01:54:53;;;;;;;0.00;0.00;;;;;;;;;;6083144;23;20018;-40
2022/07/29 01:57:20;;;;;;;0.00;0.00;;;;;;;;;;6085660;23;20015;-40
2022/07/29 01:59:47;;;;;;;0.00;0.00;;;;;;;;;;6078103;23;20065;-40
2022/07/29 02:02:14;;;;;;;0.00;0.00;;;;;;;;;;6069121;23;20348;-41
2022/07/29 02:04:43;;;;;;;0.00;0.00;;;;;;;;;;6081641;23;20081;-41
2022/07/29 02:07:10;;;;;;;;;;;;;;;;;;6076764;23;20097;-42
2022/07/29 02:09:37;;;;;;;0.00;0.00;;;;;;;;;;6081618;23;19921;-40
2022/07/29 02:12:04;;;;;;;0.00;0.00;;;;;;;;;;6079786;23;20034;-40
2022/07/29 02:14:33;;;;;;;0.00;0.00;;;;;;;;;;6087201;23;20046;-40
2022/07/29 02:17:01;;;;;;;0.00;0.00;;;;;;;;;;6083368;23;20378;-40
2022/07/29 02:19:28;;;;;;;0.00;0.00;;;;;;;;;;6080851;23;20018;-39
2022/07/29 02:21:58;;;;;;;0.00;0.00;;;;;;;;;;6079522;23;20018;-40
2022/07/29 02:24:25;;;;;;;0.00;0.00;;;;;;;;;;6082080;23;20015;-39
2022/07/29 02:26:52;;;;;;;0.00;0.00;;;;;;;;;;6075778;23;20064;-40
2022/07/29 02:29:22;;;;;;;0.00;0.00;;;;;;;;;;6082747;23;20014;-39
2022/07/29 02:31:48;;;;;;;;;;;;;;;;;;6079494;23;20023;-40
2022/07/29 02:34:16;;;;;;;0.00;0.00;;;;;;;;;;6066768;23;19921;-40
2022/07/29 02:36:43;;;;;;;0.00;0.00;;;;;;;;;;6088729;23;20015;-40
2022/07/29 02:39:12;;;;;;;0.00;0.00;;;;;;;;;;6085429;23;20014;-40
2022/07/29 02:41:41;;;;;;;0.00;0.00;;;;;;;;;;6078529;23;20010;-39
2022/07/29 02:44:10;;;;;;;0.00;0.00;;;;;;;;;;6084679;23;20014;-42
2022/07/29 02:46:37;;;;;;;0.00;0.00;;;;;;;;;;6078434;23;20019;-40
2022/07/29 02:49:08;;;;;;;0.00;0.00;;;;;;;;;;6083408;23;20312;-40
2022/07/29 02:51:37;;;;;;;0.00;0.00;;;;;;;;;;6081748;23;20615;-39
2022/07/29 02:54:04;;;;;;;;;;;;;;;;;;6073814;23;20014;-39
2022/07/29 02:56:34;;;;;;;0.00;0.00;;;;;;;;;;6077702;23;19918;-40
2022/07/29 02:59:03;;;;;;;0.00;0.00;;;;;;;;;;6077263;23;20023;-40
2022/07/29 03:01:32;;;;;;;0.00;0.00;;;;;;;;;;6074677;23;20073;-41
2022/07/29 03:04:01;;;;;;;0.00;0.00;;;;;;;;;;6079293;23;20497;-39
2022/07/29 03:06:28;;;;;;;0.00;0.00;;;;;;;;;;6080626;23;20236;-41
2022/07/29 03:08:55;;;;;;;0.00;0.00;;;;;;;;;;6080457;23;20026;-40
2022/07/29 03:11:22;;;;;;;0.00;0.00;;;;;;;;;;6072978;23;20022;-40
2022/07/29 03:13:51;;;;;;;0.00;0.00;;;;;;;;;;6082166;23;20050;-40
2022/07/29 03:16:19;;;;;;;0.00;0.00;;;;;;;;;;6086065;23;20026;-42
2022/07/29 03:18:46;;;;;;;0.00;0.00;;;;;;;;;;6088517;23;20018;-44
2022/07/29 03:21:12;;;;;;;0.00;0.00;;;;;;;;;;6075259;23;20022;-41
2022/07/29 03:23:44;;;;;;;0.00;0.00;;;;;;;;;;6083452;23;20019;-41
2022/07/29 03:26:10;;;;;;;0.00;0.00;;;;;;;;;;6075252;23;20026;-41
2022/07/29 03:28:37;;;;;;;0.00;0.00;;;;;;;;;;6085828;23;20106;-40
2022/07/29 03:31:05;;;;;;;0.00;0.00;;;;;;;;;;6080624;23;20018;-40
2022/07/29 03:33:31;;;;;;;0.00;0.00;;;;;;;;;;6077411;23;20014;-41
2022/07/29 03:35:58;;;;;;;0.00;0.00;;;;;;;;;;6071661;23;20448;-39
2022/07/29 03:38:25;;;;;;;0.00;0.00;;;;;;;;;;6081792;23;20487;-40
2022/07/29 03:40:53;;;;;;;0.00;0.00;;;;;;;;;;6077686;23;20019;-41
2022/07/29 03:43:21;;;;;;;0.00;0.00;;;;;;;;;;6085490;23;20062;-40
2022/07/29 03:45:49;;;;;;;0.00;0.00;;;;;;;;;;6080910;23;20019;-40
2022/07/29 03:48:20;;;;;;;0.00;0.00;;;;;;;;;;6084360;23;20281;-41
2022/07/29 03:50:47;;;;;;;0.00;0.00;;;;;;;;;;6079977;23;20014;-39
2022/07/29 03:53:13;;;;;;;0.00;0.00;;;;;;;;;;6089132;23;20040;-40
2022/07/29 03:55:42;;;;;;;0.00;0.00;;;;;;;;;;6077921;23;20015;-40
2022/07/29 03:58:10;;;;;;;0.00;0.00;;;;;;;;;;6081174;23;20017;-42
2022/07/29 04:00:37;;;;;;;0.00;0.00;;;;;;;;;;6090113;23;20018;-42
2022/07/29 04:03:04;;;;;;;0.00;0.00;;;;;;;;;;6080374;23;20077;-40
2022/07/29 04:05:33;;;;;;;0.00;0.00;;;;;;;;;;6085254;23;20025;-48
2022/07/29 04:08:00;;;;;;;0.00;0.00;;;;;;;;;;6072708;23;20019;-44
2022/07/29 04:10:26;;;;;;;0.00;0.00;;;;;;;;;;6086086;23;20376;-42
2022/07/29 04:12:53;;;;;;;0.00;0.00;;;;;;;;;;6079203;23;20616;-38
2022/07/29 04:15:20;;;;;;;0.00;0.00;;;;;;;;;;6087030;23;20021;-42
2022/07/29 04:17:46;;;;;;;0.00;0.00;;;;;;;;;;6082277;23;20018;-40
2022/07/29 04:20:13;;;;;;;0.00;0.00;;;;;;;;;;6090815;23;20014;-39
2022/07/29 04:22:41;;;;;;;0.00;0.00;;;;;;;;;;6079573;23;20046;-40
2022/07/29 04:25:08;;;;;;;0.00;0.00;;;;;;;;;;6080815;23;20018;-40
2022/07/29 04:27:35;;;;;;;0.00;0.00;;;;;;;;;;6085002;23;20245;-39
2022/07/29 04:30:02;;;;;;;0.00;0.00;;;;;;;;;;6079245;23;20310;-40
2022/07/29 04:32:29;;;;;;;0.00;0.00;;;;;;;;;;6069178;23;20078;-40
2022/07/29 04:34:55;;;;;;;0.00;0.00;;;;;;;;;;6077951;23;20014;-41
2022/07/29 04:37:22;;;;;;;0.00;0.00;;;;;;;;;;6088328;23;20129;-40
2022/07/29 04:39:50;;;;;;;0.00;0.00;;;;;;;;;;6075239;23;20529;-40
2022/07/29 04:42:16;;;;;;;0.00;0.00;;;;;;;;;;6078802;23;20046;-40
2022/07/29 04:44:43;;;;;;;0.00;0.00;;;;;;;;;;6086230;23;20055;-40
2022/07/29 04:47:10;;;;;;;0.00;0.00;;;;;;;;;;6088275;23;20014;-40
2022/07/29 04:49:38;;;;;;;0.00;0.00;;;;;;;;;;6079404;23;20022;-41
2022/07/29 04:52:05;;;;;;;0.00;0.00;;;;;;;;;;6087442;23;20018;-40
2022/07/29 04:54:31;;;;;;;0.00;0.00;;;;;;;;;;6075085;23;20043;-41
2022/07/29 04:56:59;;;;;;;0.00;0.00;;;;;;;;;;6086266;23;20106;-40
2022/07/29 04:59:26;;;;;;;0.00;0.00;;;;;;;;;;6076671;23;20751;-41
2022/07/29 05:01:52;;;;;;;0.00;0.00;;;;;;;;;;6084741;23;20468;-41
2022/07/29 05:04:19;;;;;;;0.00;0.00;;;;;;;;;;6075346;23;20022;-43
2022/07/29 05:06:46;;;;;;;0.00;0.00;;;;;;;;;;6085972;23;20050;-42
2022/07/29 05:09:13;;;;;;;0.00;0.00;;;;;;;;;;6080688;23;20445;-42
2022/07/29 05:11:39;;;;;;;0.00;0.00;;;;;;;;;;6084499;23;20376;-41
2022/07/29 05:14:07;;;;;;;0.00;0.00;;;;;;;;;;6079285;23;20026;-41
2022/07/29 05:16:34;;;;;;;0.00;0.00;;;;;;;;;;6086493;23;20019;-40
2022/07/29 05:19:01;;;;;;;0.00;0.00;;;;;;;;;;6078684;23;20046;-42
2022/07/29 05:21:27;;;;;;;0.00;0.00;;;;;;;;;;6083553;23;20105;-40
2022/07/29 05:23:54;;;;;;;0.00;0.00;;;;;;;;;;6076498;23;20063;-41
2022/07/29 05:26:21;;;;;;;0.00;0.00;;;;;;;;;;6086839;23;20015;-42
2022/07/29 05:28:47;;;;;;;0.00;0.00;;;;;;;;;;6077683;23;20038;-42
2022/07/29 05:31:15;;;;;;;0.00;0.00;;;;;;;;;;6082522;23;20018;-41
2022/07/29 05:33:42;;;;;;;0.00;0.00;;;;;;;;;;6078870;23;20019;-40
2022/07/29 05:36:08;;;;;;;0.00;0.00;;;;;;;;;;6084157;23;20021;-41
2022/07/29 05:38:35;;;;;;;0.00;0.00;;;;;;;;;;6082478;23;20014;-41
2022/07/29 05:41:02;;;;;;;0.00;0.00;;;;;;;;;;6076876;23;20018;-40
2022/07/29 05:43:29;;;;;;;0.00;0.00;;;;;;;;;;6084613;23;20021;-43
2022/07/29 05:45:55;;;;;;;0.00;0.00;;;;;;;;;;6084505;23;20015;-41
2022/07/29 05:48:24;;;;;;;0.00;0.00;;;;;;;;;;6078516;23;20595;-41
2022/07/29 05:50:50;;;;;;;0.00;0.00;;;;;;;;;;6083594;23;20065;-40
2022/07/29 05:53:17;;;;;;;0.00;0.00;;;;;;;;;;6081238;23;20030;-41
2022/07/29 05:55:43;;;;;;;0.00;0.00;;;;;;;;;;6082224;23;20021;-39
2022/07/29 05:58:10;;;;;;;0.00;0.00;;;;;;;;;;6082312;23;20358;-44
2022/07/29 06:00:39;;;;;;;0.00;0.00;;;;;;;;;;6081050;23;20370;-44
2022/07/29 06:03:06;;;;;;;0.00;0.00;;;;;;;;;;6069566;23;20210;-43
2022/07/29 06:05:34;;;;;;;0.00;0.00;;;;;;;;;;6073223;23;20454;-40
2022/07/29 06:08:01;;;;;;;0.00;0.00;;;;;;;;;;6079284;23;20014;-40
2022/07/29 06:10:27;;;;;;;0.00;0.00;;;;;;;;;;6078898;23;20024;-40
2022/07/29 06:12:54;;;;;;;0.00;0.00;;;;;;;;;;6078977;23;20030;-42
2022/07/29 06:15:21;;;;;;;0.00;0.00;;;;;;;;;;6081252;23;20045;-41
2022/07/29 06:17:48;;;;;;;0.00;0.00;;;;;;;;;;6076234;23;20022;-39
2022/07/29 06:20:15;;;;;;;0.00;0.00;;;;;;;;;;6083411;23;20023;-39
2022/07/29 06:22:43;;;;;;;0.00;0.00;;;;;;;;;;6077050;23;20070;-40
2022/07/29 06:25:09;;;;;;;0.00;0.00;;;;;;;;;;6083795;23;20212;-41
2022/07/29 06:27:36;;;;;;;0.00;0.00;;;;;;;;;;6078573;23;20022;-40
2022/07/29 06:30:03;;;;;;;0.00;0.00;;;;;;;;;;6083133;23;20014;-42
2022/07/29 06:32:30;;;;;;;0.00;0.00;;;;;;;;;;6076001;23;20022;-39
2022/07/29 06:34:57;;;;;;;0.00;0.00;;;;;;;;;;6078607;23;20046;-39
2022/07/29 06:37:23;;;;;;;0.00;0.00;;;;;;;;;;6078264;23;20046;-40
2022/07/29 06:40:59;;;;;;;0.00;0.00;;;;;;;;;;6083477;23;20122;-40
2022/07/29 06:42:42;;;;;;;0.00;0.00;;;;;;;;;;6082716;23;20033;-40
2022/07/29 06:45:09;;;;;;;0.00;0.00;;;;;;;;;;6082758;23;20014;-40
2022/07/29 06:47:36;;;;;;;0.00;0.00;;;;;;;;;;6085348;23;20081;-40
2022/07/29 06:50:03;;;;;;;0.00;0.00;;;;;;;;;;6071504;23;20621;-40
2022/07/29 06:52:29;;;;;;;0.00;0.00;;;;;;;;;;6083611;23;20019;-41
2022/07/29 06:54:59;;;;;;;0.00;0.00;;;;;;;;;;6076990;23;20014;-42
2022/07/29 06:57:26;;;;;;;;;;;;;;;;;;6085098;23;20305;-40
2022/07/29 06:59:52;;;;;;;0.00;0.00;;;;;;;;;;6080653;23;19952;-40
2022/07/29 07:02:19;;;;;;;0.00;0.00;;;;;;;;;;6076184;23;20014;-40
2022/07/29 07:04:46;;;;;;;0.00;0.00;;;;;;;;;;6087987;23;20449;-41
2022/07/29 07:07:12;;;;;;;0.00;0.00;;;;;;;;;;6077775;23;20018;-40
2022/07/29 07:09:39;;;;;;;0.00;0.00;;;;;;;;;;6084560;23;20097;-40
2022/07/29 07:12:07;;;;;;;0.00;0.00;;;;;;;;;;6085103;23;20014;-39
2022/07/29 07:14:33;;;;;;;0.00;0.00;;;;;;;;;;6076591;23;20022;-40
2022/07/29 07:17:00;;;;;;;0.00;0.00;;;;;;;;;;6081474;23;20025;-40
2022/07/29 07:19:27;;;;;;;0.00;0.00;;;;;;;;;;6083479;23;20018;-40
2022/07/29 07:21:53;;;;;;;0.00;0.00;;;;;;;;;;6079031;23;20014;-41
2022/07/29 07:24:21;;;;;;;0.00;0.00;;;;;;;;;;6089289;23;20022;-39
2022/07/29 07:26:48;;;;;;;0.00;0.00;;;;;;;;;;6075539;23;20392;-42
2022/07/29 07:29:17;;;;;;;0.00;0.00;;;;;;;;;;6082324;23;20018;-43
2022/07/29 07:31:43;;;;;;;0.00;0.00;;;;;;;;;;6080188;23;20014;-41
2022/07/29 07:34:10;;;;;;;0.00;0.00;;;;;;;;;;6086114;23;20034;-41
2022/07/29 07:36:36;;;;;;;0.00;0.00;;;;;;;;;;6082635;23;20018;-39
2022/07/29 07:39:04;;;;;;;0.00;0.00;;;;;;;;;;6088391;23;20023;-43
2022/07/29 07:41:31;;;;;;;0.00;0.00;;;;;;;;;;6080838;23;20018;-40
2022/07/29 07:43:58;;;;;;;0.00;0.00;;;;;;;;;;6083249;23;20038;-39
2022/07/29 07:46:25;;;;;;;0.00;0.00;;;;;;;;;;6076096;23;20026;-40
2022/07/29 07:48:52;;;;;;;0.00;0.00;;;;;;;;;;6088534;23;20025;-41
2022/07/29 07:51:19;;;;;;;0.00;0.00;;;;;;;;;;6071853;23;20025;-42
2022/07/29 07:53:49;;;;;;;0.00;0.00;;;;;;;;;;6082010;23;20026;-41
2022/07/29 07:56:16;;;;;;;0.00;0.00;;;;;;;;;;6080095;23;20077;-40
2022/07/29 07:58:42;;;;;;;0.00;0.00;;;;;;;;;;6088755;23;20022;-40
2022/07/29 08:01:09;;;;;;;0.00;0.00;;;;;;;;;;6063236;23;20029;-40
2022/07/29 08:03:37;;;;;;;0.00;0.00;;;;;;;;;;6084861;23;20023;-42
2022/07/29 08:06:04;;;;;;;0.00;0.00;;;;;;;;;;6078009;23;20085;-43
2022/07/29 08:08:30;;;;;;;0.00;0.00;;;;;;;;;;6080044;23;20022;-41
2022/07/29 08:10:58;;;;;;;0.00;0.00;;;;;;;;;;6074891;23;20018;-42
2022/07/29 08:13:27;;;;;;;0.00;0.00;;;;;;;;;;6080858;23;20026;-43
2022/07/29 08:15:59;;;;;;;0.00;0.00;;;;;;;;;;6069819;23;20590;-41
2022/07/29 08:18:26;;;;;;;0.00;0.00;;;;;;;;;;6051579;23;20018;-39
2022/07/29 08:20:54;;;;;;;0.00;0.00;;;;;;;;;;6066670;23;20385;-40
2022/07/29 08:23:22;;;;;;;0.00;0.00;;;;;;;;;;6065655;23;20029;-40
2022/07/29 08:25:49;;;;;;;0.00;0.00;;;;;;;;;;6066727;23;20097;-40
2022/07/29 08:28:15;;;;;;;0.00;0.00;;;;;;;;;;6062276;23;20015;-41
2022/07/29 08:30:42;;;;;;;0.00;0.00;;;;;;;;;;6063019;23;20018;-43
2022/07/29 08:33:08;;;;;;;0.00;0.00;;;;;;;;;;6069298;23;20032;-41
2022/07/29 08:35:35;;;;;;;0.00;0.00;;;;;;;;;;6063542;23;20046;-41
2022/07/29 08:38:03;;;;;;;0.00;0.00;;;;;;;;;;6063762;23;20132;-40
2022/07/29 08:40:30;;;;;;;0.00;0.00;;;;;;;;;;6068546;23;20019;-42
2022/07/29 08:42:57;;;;;;;0.00;0.00;;;;;;;;;;6066177;23;20030;-43
2022/07/29 08:45:24;;;;;;;0.00;0.00;;;;;;;;;;6067473;23;20018;-40
2022/07/29 08:47:50;;;;;;;0.00;0.00;;;;;;;;;;6065334;23;20388;-41
2022/07/29 08:50:18;;;;;;;0.00;0.00;;;;;;;;;;6068913;23;20018;-41
2022/07/29 08:52:45;;;;;;;0.00;0.00;;;;;;;;;;6065606;23;20018;-40
2022/07/29 08:55:16;;;;;;;0.00;0.00;;;;;;;;;;6066555;23;20030;-41
2022/07/29 08:57:42;;;;;;;0.00;0.00;;;;;;;;;;6060441;23;20583;-41
2022/07/29 09:00:10;;;;;;;0.00;0.00;;;;;;;;;;6071084;23;20014;-41
2022/07/29 09:02:40;;;;;;;0.00;0.00;;;;;;;;;;6063981;23;20499;-41
2022/07/29 09:05:07;;;;;;;0.00;0.00;;;;;;;;;;6063835;23;20303;-42
2022/07/29 09:07:34;;;;;;;0.00;0.00;;;;;;;;;;6064494;23;20086;-41
2022/07/29 09:10:01;;;;;;;0.00;0.00;;;;;;;;;;6061125;23;20086;-42
2022/07/29 09:12:29;;;;;;;0.00;0.00;;;;;;;;;;6069817;23;20069;-41
2022/07/29 09:14:56;;;;;;;0.00;0.00;;;;;;;;;;6059010;23;20026;-41
2022/07/29 09:17:37;;;;;;;0.00;0.00;;;;;;;;;;6072083;23;20018;-40
2022/07/29 09:20:09;;;;;;;0.00;0.00;;;;;;;;;;6067985;23;20038;-40
2022/07/29 09:22:36;;;;;;;0.00;0.00;;;;;;;;;;6062213;23;20014;-40
2022/07/29 09:25:03;;;;;;;0.00;0.00;;;;;;;;;;6066702;23;20022;-42
2022/07/29 09:27:31;;;;;;;0.00;0.00;;;;;;;;;;6068156;23;20022;-44
2022/07/29 09:29:58;;;;;;;0.00;0.00;;;;;;;;;;6063461;23;20516;-42
2022/07/29 09:32:26;;;;;;;0.00;0.00;;;;;;;;;;6063033;23;20033;-41
2022/07/29 09:35:14;;;;;;;0.00;0.00;;;;;;;;;;6054655;23;20046;-41
2022/07/29 09:37:41;;;;;;;0.00;0.00;;;;;;;;;;6063021;23;20468;-41
2022/07/29 09:40:12;;;;;;;0.00;0.00;;;;;;;;;;6063594;23;20018;-41
2022/07/29 09:42:39;;;;;;;0.00;0.00;;;;;;;;;;6060195;23;20333;-42
2022/07/29 09:45:06;;;;;;;0.00;0.00;;;;;;;;;;6068089;23;20018;-43
2022/07/29 09:47:41;;;;;;;0.00;0.00;;;;;;;;;;6060951;23;20014;-41
2022/07/29 09:50:08;;;;;;;0.00;0.00;;;;;;;;;;6065582;23;20176;-42
2022/07/29 09:52:45;;;;;;;0.00;0.00;;;;;;;;;;6058952;23;20019;-44
2022/07/29 09:55:11;;;;;;;0.00;0.00;;;;;;;;;;6058976;23;20341;-41
2022/07/29 09:57:39;;;;;;;0.00;0.00;;;;;;;;;;6051359;23;20022;-41
2022/07/29 10:00:08;;;;;;;0.00;0.00;;;;;;;;;;6066648;23;20018;-43
2022/07/29 10:02:35;;;;;;;0.00;0.00;;;;;;;;;;6043386;23;20425;-44
2022/07/29 10:05:02;;;;;;;0.00;0.00;;;;;;;;;;6070603;23;20018;-42
2022/07/29 10:07:44;;;;;;;0.00;0.00;;;;;;;;;;6060944;23;20024;-43
2022/07/29 10:10:11;;;;;;;0.00;0.00;;;;;;;;;;6066383;23;20272;-41
2022/07/29 10:12:49;;;;;;;0.00;0.00;;;;;;;;;;6063292;23;20014;-42
2022/07/29 10:15:16;;;;;;;0.00;0.00;;;;;;;;;;6064429;23;20029;-42
2022/07/29 10:17:43;;;;;;;0.00;0.00;;;;;;;;;;6059715;23;20087;-41
2022/07/29 10:20:10;;;;;;;0.00;0.00;;;;;;;;;;6073199;23;20045;-41
2022/07/29 10:22:37;;;;;;;0.00;0.00;;;;;;;;;;6064429;23;20014;-42
2022/07/29 10:25:04;;;;;;;0.00;0.00;;;;;;;;;;6064038;23;20019;-43
2022/07/29 10:27:30;;;;;;;0.00;0.00;;;;;;;;;;6068173;23;20353;-42
2022/07/29 10:29:58;;;;;;;0.00;0.00;;;;;;;;;;6064375;23;20029;-42
2022/07/29 10:32:35;;;;;;;0.00;0.00;;;;;;;;;;6066793;23;20018;-44
2022/07/29 10:35:10;;;;;;;0.00;0.00;;;;;;;;;;6068149;23;20046;-43
2022/07/29 10:37:45;;;;;;;0.00;0.00;;;;;;;;;;6072357;23;20025;-40
2022/07/29 10:43:09;;;;;;;0.00;0.00;;;;;;;;;;6060760;23;20018;-42
2022/07/29 10:45:37;;;;;;;0.00;0.00;;;;;;;;;;6072190;23;20053;-41
2022/07/29 10:48:05;;;;;;;0.00;0.00;;;;;;;;;;6061900;23;20077;-40
2022/07/29 10:50:52;;;;;;;0.00;0.00;;;;;;;;;;6071278;23;20041;-40
2022/07/29 10:53:19;;;;;;;0.00;0.00;;;;;;;;;;6064407;23;20024;-40
2022/07/29 10:55:49;;;;;;;0.00;0.00;;;;;;;;;;6067710;23;20018;-42
2022/07/29 10:58:17;;;;;;;0.00;0.00;;;;;;;;;;6067738;23;20050;-42
2022/07/29 11:00:48;;;;;;;0.00;0.00;;;;;;;;;;6059652;23;20018;-41
2022/07/29 11:03:32;;;;;;;0.00;0.00;;;;;;;;;;6069036;23;20029;-41
2022/07/29 11:05:59;;;;;;;0.00;0.00;;;;;;;;;;6061059;23;20217;-40
2022/07/29 11:08:26;;;;;;;0.00;0.00;;;;;;;;;;6071539;23;20014;-42
2022/07/29 11:10:55;;;;;;;0.00;0.00;;;;;;;;;;6067854;23;20015;-40
2022/07/29 11:13:40;;;;;;;0.00;0.00;;;;;;;;;;6069901;23;20015;-42
2022/07/29 11:16:08;;;;;;;0.00;0.00;;;;;;;;;;6063028;23;20019;-41
2022/07/29 11:18:35;;;;;;;0.00;0.00;;;;;;;;;;6070274;23;20042;-42
2022/07/29 11:21:01;;;;;;;0.00;0.00;;;;;;;;;;6052470;23;20518;-40
2022/07/29 11:23:29;;;;;;;0.00;0.00;;;;;;;;;;6069418;23;20014;-41
2022/07/29 11:26:15;;;;;;;0.00;0.00;;;;;;;;;;6062666;23;20015;-40
2022/07/29 11:28:52;;;;;;;0.00;0.00;;;;;;;;;;6068241;23;20046;-41
2022/07/29 11:31:33;;;;;;;0.00;0.00;;;;;;;;;;6065686;23;20179;-43
2022/07/29 11:34:14;;;;;;;0.00;0.00;;;;;;;;;;6064367;23;20528;-40
2022/07/29 11:36:56;;;;;;;0.00;0.00;;;;;;;;;;6069273;23;20404;-39
2022/07/29 11:39:29;;;;;;;0.00;0.00;;;;;;;;;;6064340;23;20015;-39
2022/07/29 11:42:18;;;;;;;0.00;0.00;;;;;;;;;;6066461;23;20029;-40
2022/07/29 11:44:54;;;;;;;0.00;0.00;;;;;;;;;;6069105;23;20098;-39
2022/07/29 11:47:22;;;;;;;0.00;0.00;;;;;;;;;;6070123;23;20014;-41
2022/07/29 11:49:50;;;;;;;0.00;0.00;;;;;;;;;;6066673;23;20339;-40
2022/07/29 11:52:17;;;;;;;0.00;0.00;;;;;;;;;;6065567;23;20615;-41
2022/07/29 11:54:45;;;;;;;0.00;0.00;;;;;;;;;;6069304;23;20629;-42
2022/07/29 11:57:12;;;;;;;0.00;0.00;;;;;;;;;;6064054;23;20014;-40
2022/07/29 11:59:39;;;;;;;0.00;0.00;;;;;;;;;;6062778;23;20015;-41
2022/07/29 12:02:07;;;;;;;0.00;0.00;;;;;;;;;;6069220;23;20021;-44
2022/07/29 12:04:48;;;;;;;0.00;0.00;;;;;;;;;;6067353;23;20028;-40
2022/07/29 12:07:15;;;;;;;0.00;0.00;;;;;;;;;;6064596;23;20032;-41
2022/07/29 12:09:49;;;;;;;0.00;0.00;;;;;;;;;;6053086;23;20019;-40
2022/07/29 12:12:16;;;;;;;0.00;0.00;;;;;;;;;;6065481;23;20022;-41
2022/07/29 12:14:46;;;;;;;0.00;0.00;;;;;;;;;;6062620;23;20018;-41
2022/07/29 12:17:12;;;;;;;;;;;;;;;;;;6071684;23;20060;-42
2022/07/29 12:19:44;;;;;;;0.00;0.00;;;;;;;;;;6056672;23;19921;-42
2022/07/29 12:22:11;;;;;;;0.00;0.00;;;;;;;;;;6067829;23;20078;-42
2022/07/29 12:24:43;;;;;;;0.00;0.00;;;;;;;;;;6059579;23;20426;-45
2022/07/29 12:27:11;;;;;;;0.00;0.00;;;;;;;;;;6063083;23;20018;-41
2022/07/29 12:29:37;;;;;;;0.00;0.00;;;;;;;;;;6062179;23;20021;-42
2022/07/29 12:32:05;;;;;;;0.00;0.00;;;;;;;;;;6062072;23;20025;-41
2022/07/29 12:34:32;;;;;;;0.00;0.00;;;;;;;;;;6063603;23;20022;-40
2022/07/29 12:37:01;;;;;;;0.00;0.00;;;;;;;;;;6053190;23;20028;-43
2022/07/29 12:39:28;;;;;;;0.00;0.00;;;;;;;;;;6062978;23;20029;-44
2022/07/29 12:41:55;;;;;;;0.00;0.00;;;;;;;;;;6059174;23;20018;-40
2022/07/29 12:44:21;;;;;;;0.00;0.00;;;;;;;;;;6067642;23;20018;-40
2022/07/29 12:47:01;;;;;;;0.00;0.00;;;;;;;;;;6058194;23;20037;-42
2022/07/29 12:49:28;;;;;;;0.00;0.00;;;;;;;;;;6063892;23;20045;-41
2022/07/29 12:51:56;;;;;;;0.00;0.00;;;;;;;;;;6060054;23;20015;-42
2022/07/29 12:54:24;;;;;;;0.00;0.00;;;;;;;;;;6060558;23;20092;-42
2022/07/29 12:56:59;;;;;;;0.00;0.00;;;;;;;;;;6061024;23;20095;-48
2022/07/29 12:59:25;;;;;;;0.00;0.00;;;;;;;;;;6057519;23;20500;-44
2022/07/29 13:01:52;;;;;;;0.00;0.00;;;;;;;;;;6065568;23;20018;-42
2022/07/29 13:04:26;;;;;;;0.00;0.00;;;;;;;;;;6054124;23;20025;-44
2022/07/29 13:06:59;;;;;;;0.00;0.00;;;;;;;;;;6060879;23;20042;-40
2022/07/29 13:09:36;;;;;;;0.00;0.00;;;;;;;;;;6009238;23;20050;-41
2022/07/29 13:12:07;;;;;;;0.00;0.00;;;;;;;;;;6065239;23;20449;-40
2022/07/29 13:14:35;;;;;;;0.00;0.00;;;;;;;;;;6072534;23;20076;-39
2022/07/29 13:17:03;;;;;;;0.00;0.00;;;;;;;;;;6058008;23;20051;-41
2022/07/29 13:19:34;;;;;;;0.00;0.00;;;;;;;;;;6053881;23;80334;-40
2022/07/29 13:22:00;;;;;;;0.00;0.00;;;;;;;;;;6072832;23;20093;-41
2022/07/29 13:24:29;;;;;;;0.00;0.00;;;;;;;;;;6050785;23;20014;-40
2022/07/29 13:26:56;;;;;;;0.00;0.00;;;;;;;;;;6049457;23;20472;-40
2022/07/29 13:29:22;;;;;;;0.00;0.00;;;;;;;;;;6072234;23;20018;-40
2022/07/29 13:31:49;;;;;;;0.00;0.00;;;;;;;;;;6063894;23;20014;-41
2022/07/29 13:34:16;;;;;;;0.00;0.00;;;;;;;;;;6074853;23;20030;-40
2022/07/29 13:36:43;;;;;;;0.00;0.00;;;;;;;;;;6059798;23;20185;-40
2022/07/29 13:39:11;;;;;;;0.00;0.00;;;;;;;;;;6053488;23;20018;-41
2022/07/29 13:41:39;;;;;;;0.00;0.00;;;;;;;;;;6060193;23;20033;-42
2022/07/29 13:44:05;;;;;;;0.00;0.00;;;;;;;;;;6070576;23;20117;-43
2022/07/29 13:46:32;;;;;;;0.00;0.00;;;;;;;;;;6070755;23;20018;-40
2022/07/29 13:48:58;;;;;;;0.00;0.00;;;;;;;;;;6067979;23;20022;-40
2022/07/29 13:51:25;;;;;;;0.00;0.00;;;;;;;;;;6041332;23;20032;-44
2022/07/29 13:53:51;;;;;;;0.00;0.00;;;;;;;;;;6064414;23;20267;-41
2022/07/29 13:56:18;;;;;;;0.00;0.00;;;;;;;;;;6066831;23;20018;-42
2022/07/29 13:58:46;;;;;;;0.00;0.00;;;;;;;;;;6058455;23;20014;-43
2022/07/29 14:01:13;;;;;;;0.00;0.00;;;;;;;;;;6034746;23;20595;-42
2022/07/29 14:03:41;;;;;;;0.00;0.00;;;;;;;;;;6029223;23;20428;-42
2022/07/29 14:06:07;;;;;;;0.00;0.00;;;;;;;;;;6041477;23;20086;-43
2022/07/29 14:08:37;;;;;;;0.00;0.00;;;;;;;;;;6051188;23;20808;-41
2022/07/29 14:11:08;;;;;;;0.00;0.00;;;;;;;;;;6062467;23;20081;-44
2022/07/29 14:13:34;;;;;;;0.00;0.00;;;;;;;;;;6044273;23;20026;-47
2022/07/29 14:16:02;;;;;;;0.00;0.00;;;;;;;;;;6065019;23;20025;-41
2022/07/29 14:18:29;;;;;;;0.00;0.00;;;;;;;;;;6070796;23;20389;-41
2022/07/29 14:20:55;;;;;;;0.00;0.00;;;;;;;;;;6054372;23;20034;-41
2022/07/29 14:23:26;;;;;;;0.00;0.00;;;;;;;;;;6067745;23;20765;-43
2022/07/29 14:25:53;;;;;;;0.00;0.00;;;;;;;;;;6068596;23;20054;-41
2022/07/29 14:28:20;;;;;;;0.00;0.00;;;;;;;;;;6060384;23;20015;-41
2022/07/29 14:30:46;;;;;;;0.00;0.00;;;;;;;;;;6062014;23;20027;-43
2022/07/29 14:33:14;;;;;;;0.00;0.00;;;;;;;;;;6064733;23;20018;-41
2022/07/29 14:35:50;;;;;;;0.00;0.00;;;;;;;;;;6054089;23;20490;-42
2022/07/29 14:38:17;;;;;;;0.00;0.00;;;;;;;;;;6063800;23;20014;-43
2022/07/29 14:40:46;;;;;;;0.00;0.00;;;;;;;;;;6058147;23;20021;-43
2022/07/29 14:43:13;;;;;;;0.00;0.00;;;;;;;;;;6066815;23;20026;-41
2022/07/29 14:45:39;;;;;;;0.00;0.00;;;;;;;;;;6069448;23;20030;-43
2022/07/29 14:48:06;;;;;;;0.00;0.00;;;;;;;;;;6066446;23;20022;-39
2022/07/29 14:50:34;;;;;;;0.00;0.00;;;;;;;;;;6065063;23;20018;-41
2022/07/29 14:53:01;;;;;;;0.00;0.00;;;;;;;;;;6062327;23;20042;-42
2022/07/29 14:55:28;;;;;;;0.00;0.00;;;;;;;;;;6069863;23;20018;-42
2022/07/29 14:57:54;;;;;;;0.00;0.00;;;;;;;;;;6059663;23;20029;-40